sensor_id;sensor_type;location;lat;lon;timestamp;P1;durP1;ratioP1;P2;durP2;ratioP2
44728;SDS011;30457;53.590;9.922;2024-02-15T00:04:14;8.50;;;6.15;;
44728;SDS011;30457;53.590;9.922;2024-02-15T00:08:42;8.00;;;5.72;;
44728;SDS011;30457;53.590;9.922;2024-02-15T00:13:07;10.50;;;6.55;;
44728;SDS011;30457;53.590;9.922;2024-02-15T00:17:33;8.90;;;6.50;;
44728;SDS011;30457;53.590;9.922;2024-02-15T00:22:00;10.68;;;6.43;;
44728;SDS011;30457;53.590;9.922;2024-02-15T00:26:26;10.70;;;6.80;;
44728;SDS011;30457;53.590;9.922;2024-02-15T00:30:52;11.30;;;7.00;;
44728;SDS011;30457;53.590;9.922;2024-02-15T00:35:18;9.90;;;7.25;;
44728;SDS011;30457;53.590;9.922;2024-02-15T00:39:43;10.73;;;7.90;;
44728;SDS011;30457;53.590;9.922;2024-02-15T00:44:09;10.95;;;7.50;;
44728;SDS011;30457;53.590;9.922;2024-02-15T00:48:37;13.68;;;9.15;;
44728;SDS011;30457;53.590;9.922;2024-02-15T00:53:03;12.00;;;7.88;;
44728;SDS011;30457;53.590;9.922;2024-02-15T00:57:29;11.27;;;8.07;;
44728;SDS011;30457;53.590;9.922;2024-02-15T01:01:55;10.98;;;8.18;;
44728;SDS011;30457;53.590;9.922;2024-02-15T01:06:20;14.02;;;8.40;;
44728;SDS011;30457;53.590;9.922;2024-02-15T01:10:47;9.15;;;6.63;;
44728;SDS011;30457;53.590;9.922;2024-02-15T01:15:12;13.48;;;7.82;;
44728;SDS011;30457;53.590;9.922;2024-02-15T01:19:38;10.95;;;8.23;;
44728;SDS011;30457;53.590;9.922;2024-02-15T01:24:04;11.30;;;7.72;;
44728;SDS011;30457;53.590;9.922;2024-02-15T01:28:31;10.93;;;7.65;;
44728;SDS011;30457;53.590;9.922;2024-02-15T01:32:57;15.35;;;9.65;;
44728;SDS011;30457;53.590;9.922;2024-02-15T01:37:23;12.15;;;8.70;;
44728;SDS011;30457;53.590;9.922;2024-02-15T01:41:49;13.38;;;9.50;;
44728;SDS011;30457;53.590;9.922;2024-02-15T01:46:20;13.23;;;9.20;;
44728;SDS011;30457;53.590;9.922;2024-02-15T01:50:46;11.75;;;8.25;;
44728;SDS011;30457;53.590;9.922;2024-02-15T01:55:14;13.10;;;8.68;;
44728;SDS011;30457;53.590;9.922;2024-02-15T01:59:43;13.25;;;8.80;;
44728;SDS011;30457;53.590;9.922;2024-02-15T02:04:10;31.35;;;10.48;;
44728;SDS011;30457;53.590;9.922;2024-02-15T02:08:35;11.88;;;8.18;;
44728;SDS011;30457;53.590;9.922;2024-02-15T02:13:01;14.82;;;10.50;;
44728;SDS011;30457;53.590;9.922;2024-02-15T02:17:27;11.35;;;8.45;;
44728;SDS011;30457;53.590;9.922;2024-02-15T02:21:53;12.73;;;9.20;;
44728;SDS011;30457;53.590;9.922;2024-02-15T02:26:20;18.13;;;9.35;;
44728;SDS011;30457;53.590;9.922;2024-02-15T02:30:47;13.15;;;8.45;;
44728;SDS011;30457;53.590;9.922;2024-02-15T02:35:13;13.43;;;7.95;;
44728;SDS011;30457;53.590;9.922;2024-02-15T02:39:40;11.98;;;7.60;;
44728;SDS011;30457;53.590;9.922;2024-02-15T02:44:08;10.00;;;7.07;;
44728;SDS011;30457;53.590;9.922;2024-02-15T02:48:34;9.52;;;6.82;;
44728;SDS011;30457;53.590;9.922;2024-02-15T02:52:59;11.50;;;8.32;;
44728;SDS011;30457;53.590;9.922;2024-02-15T02:57:25;12.77;;;8.60;;
44728;SDS011;30457;53.590;9.922;2024-02-15T03:01:50;12.55;;;8.32;;
44728;SDS011;30457;53.590;9.922;2024-02-15T03:06:16;14.95;;;9.27;;
44728;SDS011;30457;53.590;9.922;2024-02-15T03:10:41;13.73;;;8.75;;
44728;SDS011;30457;53.590;9.922;2024-02-15T03:15:08;14.55;;;8.90;;
44728;SDS011;30457;53.590;9.922;2024-02-15T03:19:36;13.27;;;8.40;;
44728;SDS011;30457;53.590;9.922;2024-02-15T03:24:02;11.30;;;7.88;;
44728;SDS011;30457;53.590;9.922;2024-02-15T03:28:28;11.63;;;7.78;;
44728;SDS011;30457;53.590;9.922;2024-02-15T03:32:53;11.38;;;7.57;;
44728;SDS011;30457;53.590;9.922;2024-02-15T03:37:19;9.85;;;6.85;;
44728;SDS011;30457;53.590;9.922;2024-02-15T03:41:45;10.63;;;6.68;;
44728;SDS011;30457;53.590;9.922;2024-02-15T03:46:11;10.90;;;6.88;;
44728;SDS011;30457;53.590;9.922;2024-02-15T03:50:38;10.65;;;7.65;;
44728;SDS011;30457;53.590;9.922;2024-02-15T03:55:04;11.65;;;7.40;;
44728;SDS011;30457;53.590;9.922;2024-02-15T03:59:30;15.00;;;7.72;;
44728;SDS011;30457;53.590;9.922;2024-02-15T04:03:57;13.68;;;8.07;;
44728;SDS011;30457;53.590;9.922;2024-02-15T04:08:22;15.10;;;7.47;;
44728;SDS011;30457;53.590;9.922;2024-02-15T04:12:48;14.15;;;8.30;;
44728;SDS011;30457;53.590;9.922;2024-02-15T04:17:14;11.48;;;7.30;;
44728;SDS011;30457;53.590;9.922;2024-02-15T04:21:41;14.90;;;7.70;;
44728;SDS011;30457;53.590;9.922;2024-02-15T04:26:08;17.52;;;9.43;;
44728;SDS011;30457;53.590;9.922;2024-02-15T04:30:34;15.18;;;9.20;;
44728;SDS011;30457;53.590;9.922;2024-02-15T04:35:03;14.20;;;8.95;;
44728;SDS011;30457;53.590;9.922;2024-02-15T04:39:30;15.18;;;9.25;;
44728;SDS011;30457;53.590;9.922;2024-02-15T04:43:56;12.98;;;8.82;;
44728;SDS011;30457;53.590;9.922;2024-02-15T04:48:21;18.48;;;9.95;;
44728;SDS011;30457;53.590;9.922;2024-02-15T04:52:49;14.45;;;9.07;;
44728;SDS011;30457;53.590;9.922;2024-02-15T04:57:15;17.10;;;9.30;;
44728;SDS011;30457;53.590;9.922;2024-02-15T05:01:42;15.02;;;9.30;;
44728;SDS011;30457;53.590;9.922;2024-02-15T05:06:08;21.92;;;9.38;;
44728;SDS011;30457;53.590;9.922;2024-02-15T05:10:34;16.20;;;8.82;;
44728;SDS011;30457;53.590;9.922;2024-02-15T05:14:59;14.18;;;8.18;;
44728;SDS011;30457;53.590;9.922;2024-02-15T05:19:25;12.90;;;8.60;;
44728;SDS011;30457;53.590;9.922;2024-02-15T05:23:51;15.55;;;9.60;;
44728;SDS011;30457;53.590;9.922;2024-02-15T05:28:17;18.70;;;8.88;;
44728;SDS011;30457;53.590;9.922;2024-02-15T05:32:43;13.85;;;8.57;;
44728;SDS011;30457;53.590;9.922;2024-02-15T05:37:10;15.35;;;8.85;;
44728;SDS011;30457;53.590;9.922;2024-02-15T05:41:35;14.52;;;8.38;;
44728;SDS011;30457;53.590;9.922;2024-02-15T05:46:02;16.10;;;9.85;;
44728;SDS011;30457;53.590;9.922;2024-02-15T05:50:28;15.05;;;9.05;;
44728;SDS011;30457;53.590;9.922;2024-02-15T05:54:55;20.00;;;8.60;;
44728;SDS011;30457;53.590;9.922;2024-02-15T05:59:20;14.80;;;7.65;;
44728;SDS011;30457;53.590;9.922;2024-02-15T06:03:46;12.85;;;7.75;;
44728;SDS011;30457;53.590;9.922;2024-02-15T06:08:13;15.18;;;9.65;;
44728;SDS011;30457;53.590;9.922;2024-02-15T06:12:38;16.73;;;9.63;;
44728;SDS011;30457;53.590;9.922;2024-02-15T06:17:04;17.42;;;9.30;;
44728;SDS011;30457;53.590;9.922;2024-02-15T06:21:29;16.58;;;9.75;;
44728;SDS011;30457;53.590;9.922;2024-02-15T06:25:55;18.45;;;10.10;;
44728;SDS011;30457;53.590;9.922;2024-02-15T06:30:23;21.17;;;10.85;;
44728;SDS011;30457;53.590;9.922;2024-02-15T06:35:07;16.75;;;10.55;;
44728;SDS011;30457;53.590;9.922;2024-02-15T06:39:53;19.88;;;10.75;;
44728;SDS011;30457;53.590;9.922;2024-02-15T06:44:19;22.25;;;10.75;;
44728;SDS011;30457;53.590;9.922;2024-02-15T06:48:44;18.73;;;9.93;;
44728;SDS011;30457;53.590;9.922;2024-02-15T06:53:10;27.98;;;12.30;;
44728;SDS011;30457;53.590;9.922;2024-02-15T06:57:35;17.27;;;9.85;;
44728;SDS011;30457;53.590;9.922;2024-02-15T07:02:01;17.52;;;9.82;;
44728;SDS011;30457;53.590;9.922;2024-02-15T07:06:30;20.83;;;10.65;;
44728;SDS011;30457;53.590;9.922;2024-02-15T07:10:56;20.90;;;11.25;;
44728;SDS011;30457;53.590;9.922;2024-02-15T07:15:22;18.65;;;10.77;;
44728;SDS011;30457;53.590;9.922;2024-02-15T07:19:47;17.98;;;9.82;;
44728;SDS011;30457;53.590;9.922;2024-02-15T07:24:14;17.88;;;9.60;;
44728;SDS011;30457;53.590;9.922;2024-02-15T07:28:39;16.25;;;9.52;;
44728;SDS011;30457;53.590;9.922;2024-02-15T07:33:05;19.75;;;9.70;;
44728;SDS011;30457;53.590;9.922;2024-02-15T07:37:33;21.38;;;9.82;;
44728;SDS011;30457;53.590;9.922;2024-02-15T07:41:59;19.63;;;9.32;;
44728;SDS011;30457;53.590;9.922;2024-02-15T07:46:24;17.15;;;9.85;;
44728;SDS011;30457;53.590;9.922;2024-02-15T07:50:50;17.52;;;8.88;;
44728;SDS011;30457;53.590;9.922;2024-02-15T07:55:15;16.40;;;8.63;;
44728;SDS011;30457;53.590;9.922;2024-02-15T07:59:41;16.35;;;9.30;;
44728;SDS011;30457;53.590;9.922;2024-02-15T08:04:07;16.10;;;9.10;;
44728;SDS011;30457;53.590;9.922;2024-02-15T08:08:33;20.10;;;9.73;;
44728;SDS011;30457;53.590;9.922;2024-02-15T08:13:02;16.67;;;9.38;;
44728;SDS011;30457;53.590;9.922;2024-02-15T08:17:28;17.23;;;9.98;;
44728;SDS011;30457;53.590;9.922;2024-02-15T08:21:54;17.77;;;10.57;;
44728;SDS011;30457;53.590;9.922;2024-02-15T08:26:19;16.70;;;9.90;;
44728;SDS011;30457;53.590;9.922;2024-02-15T08:30:45;15.68;;;8.93;;
44728;SDS011;30457;53.590;9.922;2024-02-15T08:35:12;16.00;;;9.15;;
44728;SDS011;30457;53.590;9.922;2024-02-15T08:39:38;17.75;;;9.68;;
44728;SDS011;30457;53.590;9.922;2024-02-15T08:44:03;13.70;;;8.07;;
44728;SDS011;30457;53.590;9.922;2024-02-15T08:48:34;10.63;;;6.60;;
44728;SDS011;30457;53.590;9.922;2024-02-15T08:53:00;13.88;;;6.68;;
44728;SDS011;30457;53.590;9.922;2024-02-15T08:57:26;11.23;;;6.70;;
44728;SDS011;30457;53.590;9.922;2024-02-15T09:01:51;8.77;;;5.80;;
44728;SDS011;30457;53.590;9.922;2024-02-15T09:06:19;8.45;;;5.13;;
44728;SDS011;30457;53.590;9.922;2024-02-15T09:10:44;8.30;;;5.25;;
44728;SDS011;30457;53.590;9.922;2024-02-15T09:15:10;7.90;;;5.38;;
44728;SDS011;30457;53.590;9.922;2024-02-15T09:19:36;7.40;;;4.57;;
44728;SDS011;30457;53.590;9.922;2024-02-15T09:24:02;6.60;;;4.40;;
44728;SDS011;30457;53.590;9.922;2024-02-15T09:28:27;8.13;;;4.95;;
44728;SDS011;30457;53.590;9.922;2024-02-15T09:32:53;10.50;;;6.03;;
44728;SDS011;30457;53.590;9.922;2024-02-15T09:37:18;9.20;;;4.93;;
44728;SDS011;30457;53.590;9.922;2024-02-15T09:41:44;9.68;;;5.93;;
44728;SDS011;30457;53.590;9.922;2024-02-15T09:46:09;10.18;;;5.72;;
44728;SDS011;30457;53.590;9.922;2024-02-15T09:50:35;7.85;;;5.13;;
44728;SDS011;30457;53.590;9.922;2024-02-15T09:55:04;7.70;;;5.97;;
44728;SDS011;30457;53.590;9.922;2024-02-15T09:59:30;9.35;;;5.88;;
44728;SDS011;30457;53.590;9.922;2024-02-15T10:03:56;7.30;;;5.25;;
44728;SDS011;30457;53.590;9.922;2024-02-15T10:08:24;9.77;;;6.32;;
44728;SDS011;30457;53.590;9.922;2024-02-15T10:12:50;14.50;;;6.35;;
44728;SDS011;30457;53.590;9.922;2024-02-15T10:17:20;12.52;;;6.43;;
44728;SDS011;30457;53.590;9.922;2024-02-15T10:21:45;10.75;;;6.05;;
44728;SDS011;30457;53.590;9.922;2024-02-15T10:26:20;11.70;;;6.90;;
44728;SDS011;30457;53.590;9.922;2024-02-15T10:30:48;10.65;;;6.82;;
44728;SDS011;30457;53.590;9.922;2024-02-15T10:35:18;10.43;;;6.57;;
44728;SDS011;30457;53.590;9.922;2024-02-15T10:39:45;10.20;;;6.80;;
44728;SDS011;30457;53.590;9.922;2024-02-15T10:44:13;12.52;;;8.20;;
44728;SDS011;30457;53.590;9.922;2024-02-15T10:48:46;12.73;;;7.90;;
44728;SDS011;30457;53.590;9.922;2024-02-15T10:57:49;12.40;;;7.82;;
44728;SDS011;30457;53.590;9.922;2024-02-15T11:06:50;11.40;;;8.20;;
44728;SDS011;30457;53.590;9.922;2024-02-15T11:11:20;13.77;;;9.25;;
44728;SDS011;30457;53.590;9.922;2024-02-15T11:15:46;16.10;;;8.82;;
44728;SDS011;30457;53.590;9.922;2024-02-15T11:20:45;12.20;;;7.93;;
44728;SDS011;30457;53.590;9.922;2024-02-15T11:25:11;12.52;;;8.90;;
44728;SDS011;30457;53.590;9.922;2024-02-15T11:39:40;16.88;;;10.35;;
44728;SDS011;30457;53.590;9.922;2024-02-15T11:44:07;18.23;;;11.20;;
44728;SDS011;30457;53.590;9.922;2024-02-15T11:48:36;18.27;;;10.90;;
44728;SDS011;30457;53.590;9.922;2024-02-15T11:53:05;17.10;;;10.82;;
44728;SDS011;30457;53.590;9.922;2024-02-15T11:57:34;15.15;;;9.18;;
44728;SDS011;30457;53.590;9.922;2024-02-15T12:02:12;12.73;;;9.82;;
44728;SDS011;30457;53.590;9.922;2024-02-15T12:06:58;19.90;;;10.57;;
44728;SDS011;30457;53.590;9.922;2024-02-15T12:11:42;12.98;;;9.27;;
44728;SDS011;30457;53.590;9.922;2024-02-15T12:16:26;13.73;;;9.13;;
44728;SDS011;30457;53.590;9.922;2024-02-15T12:21:11;11.90;;;8.48;;
44728;SDS011;30457;53.590;9.922;2024-02-15T12:25:41;11.45;;;8.23;;
44728;SDS011;30457;53.590;9.922;2024-02-15T12:30:07;11.35;;;8.02;;
44728;SDS011;30457;53.590;9.922;2024-02-15T12:34:37;9.85;;;7.20;;
44728;SDS011;30457;53.590;9.922;2024-02-15T12:39:04;9.63;;;6.43;;
44728;SDS011;30457;53.590;9.922;2024-02-15T12:43:36;8.15;;;6.32;;
44728;SDS011;30457;53.590;9.922;2024-02-15T12:48:02;6.78;;;5.30;;
44728;SDS011;30457;53.590;9.922;2024-02-15T12:52:32;7.40;;;5.60;;
44728;SDS011;30457;53.590;9.922;2024-02-15T12:57:09;6.43;;;4.47;;
44728;SDS011;30457;53.590;9.922;2024-02-15T13:01:35;5.77;;;4.70;;
44728;SDS011;30457;53.590;9.922;2024-02-15T13:06:00;7.05;;;4.13;;
44728;SDS011;30457;53.590;9.922;2024-02-15T13:10:27;4.65;;;4.18;;
44728;SDS011;30457;53.590;9.922;2024-02-15T13:14:53;4.68;;;3.58;;
44728;SDS011;30457;53.590;9.922;2024-02-15T13:19:19;5.45;;;4.18;;
44728;SDS011;30457;53.590;9.922;2024-02-15T13:23:46;6.03;;;4.50;;
44728;SDS011;30457;53.590;9.922;2024-02-15T13:28:13;6.53;;;4.07;;
44728;SDS011;30457;53.590;9.922;2024-02-15T13:32:39;12.15;;;4.53;;
44728;SDS011;30457;53.590;9.922;2024-02-15T13:37:08;6.72;;;4.40;;
44728;SDS011;30457;53.590;9.922;2024-02-15T13:41:33;5.55;;;4.70;;
44728;SDS011;30457;53.590;9.922;2024-02-15T13:45:59;6.93;;;4.22;;
44728;SDS011;30457;53.590;9.922;2024-02-15T13:50:25;5.43;;;4.43;;
44728;SDS011;30457;53.590;9.922;2024-02-15T13:54:50;5.80;;;4.88;;
44728;SDS011;30457;53.590;9.922;2024-02-15T13:59:16;4.72;;;4.05;;
44728;SDS011;30457;53.590;9.922;2024-02-15T14:03:41;5.72;;;4.53;;
44728;SDS011;30457;53.590;9.922;2024-02-15T14:08:07;6.00;;;4.43;;
44728;SDS011;30457;53.590;9.922;2024-02-15T14:12:37;5.40;;;4.32;;
44728;SDS011;30457;53.590;9.922;2024-02-15T14:17:03;7.30;;;5.03;;
44728;SDS011;30457;53.590;9.922;2024-02-15T14:21:29;5.43;;;4.47;;
44728;SDS011;30457;53.590;9.922;2024-02-15T14:25:57;4.78;;;4.25;;
44728;SDS011;30457;53.590;9.922;2024-02-15T14:30:25;4.65;;;4.18;;
44728;SDS011;30457;53.590;9.922;2024-02-15T14:35:10;4.63;;;4.13;;
44728;SDS011;30457;53.590;9.922;2024-02-15T14:39:36;7.50;;;4.53;;
44728;SDS011;30457;53.590;9.922;2024-02-15T14:44:02;6.65;;;4.15;;
44728;SDS011;30457;53.590;9.922;2024-02-15T14:48:27;5.20;;;3.72;;
44728;SDS011;30457;53.590;9.922;2024-02-15T14:52:55;6.10;;;4.25;;
44728;SDS011;30457;53.590;9.922;2024-02-15T14:57:47;4.35;;;3.90;;
44728;SDS011;30457;53.590;9.922;2024-02-15T15:02:13;6.82;;;3.90;;
44728;SDS011;30457;53.590;9.922;2024-02-15T15:06:39;6.97;;;4.35;;
44728;SDS011;30457;53.590;9.922;2024-02-15T15:11:28;7.50;;;4.35;;
44728;SDS011;30457;53.590;9.922;2024-02-15T15:16:12;4.85;;;4.22;;
44728;SDS011;30457;53.590;9.922;2024-02-15T15:20:42;10.35;;;4.65;;
44728;SDS011;30457;53.590;9.922;2024-02-15T15:25:08;6.38;;;4.28;;
44728;SDS011;30457;53.590;9.922;2024-02-15T15:29:37;5.80;;;5.03;;
44728;SDS011;30457;53.590;9.922;2024-02-15T15:34:03;5.47;;;4.20;;
44728;SDS011;30457;53.590;9.922;2024-02-15T15:38:29;4.65;;;3.85;;
44728;SDS011;30457;53.590;9.922;2024-02-15T15:42:54;5.75;;;4.20;;
44728;SDS011;30457;53.590;9.922;2024-02-15T15:47:20;6.13;;;4.00;;
44728;SDS011;30457;53.590;9.922;2024-02-15T15:51:47;5.15;;;4.05;;
44728;SDS011;30457;53.590;9.922;2024-02-15T15:56:12;7.28;;;4.65;;
44728;SDS011;30457;53.590;9.922;2024-02-15T16:00:39;5.03;;;4.10;;
44728;SDS011;30457;53.590;9.922;2024-02-15T16:05:04;5.20;;;4.28;;
44728;SDS011;30457;53.590;9.922;2024-02-15T16:09:31;7.13;;;4.60;;
44728;SDS011;30457;53.590;9.922;2024-02-15T16:13:57;4.30;;;3.83;;
44728;SDS011;30457;53.590;9.922;2024-02-15T16:18:22;7.05;;;3.88;;
44728;SDS011;30457;53.590;9.922;2024-02-15T16:22:48;5.57;;;3.80;;
44728;SDS011;30457;53.590;9.922;2024-02-15T16:27:14;5.32;;;4.35;;
44728;SDS011;30457;53.590;9.922;2024-02-15T16:31:39;6.03;;;3.83;;
44728;SDS011;30457;53.590;9.922;2024-02-15T16:36:05;5.03;;;4.53;;
44728;SDS011;30457;53.590;9.922;2024-02-15T16:40:32;5.45;;;4.15;;
44728;SDS011;30457;53.590;9.922;2024-02-15T16:44:57;7.57;;;4.15;;
44728;SDS011;30457;53.590;9.922;2024-02-15T16:49:23;4.45;;;3.60;;
44728;SDS011;30457;53.590;9.922;2024-02-15T16:53:48;4.90;;;3.63;;
44728;SDS011;30457;53.590;9.922;2024-02-15T16:58:14;4.70;;;4.18;;
44728;SDS011;30457;53.590;9.922;2024-02-15T17:02:40;5.78;;;4.32;;
44728;SDS011;30457;53.590;9.922;2024-02-15T17:07:06;4.82;;;4.18;;
44728;SDS011;30457;53.590;9.922;2024-02-15T17:11:32;6.50;;;4.60;;
44728;SDS011;30457;53.590;9.922;2024-02-15T17:15:57;4.53;;;4.07;;
44728;SDS011;30457;53.590;9.922;2024-02-15T17:20:23;6.35;;;4.25;;
44728;SDS011;30457;53.590;9.922;2024-02-15T17:24:48;5.25;;;4.13;;
44728;SDS011;30457;53.590;9.922;2024-02-15T17:29:15;4.47;;;4.07;;
44728;SDS011;30457;53.590;9.922;2024-02-15T17:33:41;7.10;;;4.70;;
44728;SDS011;30457;53.590;9.922;2024-02-15T17:38:06;8.07;;;3.95;;
44728;SDS011;30457;53.590;9.922;2024-02-15T17:42:32;8.90;;;4.45;;
44728;SDS011;30457;53.590;9.922;2024-02-15T17:46:58;6.50;;;4.28;;
44728;SDS011;30457;53.590;9.922;2024-02-15T17:51:25;6.22;;;4.10;;
44728;SDS011;30457;53.590;9.922;2024-02-15T17:55:51;6.50;;;4.70;;
44728;SDS011;30457;53.590;9.922;2024-02-15T18:00:17;6.47;;;4.22;;
44728;SDS011;30457;53.590;9.922;2024-02-15T18:04:47;5.95;;;4.40;;
44728;SDS011;30457;53.590;9.922;2024-02-15T18:09:15;5.78;;;3.97;;
44728;SDS011;30457;53.590;9.922;2024-02-15T18:13:40;7.40;;;4.45;;
44728;SDS011;30457;53.590;9.922;2024-02-15T18:18:06;6.82;;;4.18;;
44728;SDS011;30457;53.590;9.922;2024-02-15T18:22:31;5.18;;;4.43;;
44728;SDS011;30457;53.590;9.922;2024-02-15T18:26:57;6.10;;;4.20;;
44728;SDS011;30457;53.590;9.922;2024-02-15T18:31:23;5.57;;;3.88;;
44728;SDS011;30457;53.590;9.922;2024-02-15T18:35:49;4.88;;;4.00;;
44728;SDS011;30457;53.590;9.922;2024-02-15T18:40:14;8.10;;;4.28;;
44728;SDS011;30457;53.590;9.922;2024-02-15T18:44:40;5.45;;;4.00;;
44728;SDS011;30457;53.590;9.922;2024-02-15T18:49:05;8.73;;;4.68;;
44728;SDS011;30457;53.590;9.922;2024-02-15T18:53:31;4.07;;;3.55;;
44728;SDS011;30457;53.590;9.922;2024-02-15T18:57:57;5.68;;;4.20;;
44728;SDS011;30457;53.590;9.922;2024-02-15T19:02:22;7.35;;;4.57;;
44728;SDS011;30457;53.590;9.922;2024-02-15T19:06:48;12.55;;;4.80;;
44728;SDS011;30457;53.590;9.922;2024-02-15T19:11:13;7.65;;;4.50;;
44728;SDS011;30457;53.590;9.922;2024-02-15T19:15:39;4.35;;;3.72;;
44728;SDS011;30457;53.590;9.922;2024-02-15T19:20:05;9.25;;;5.35;;
44728;SDS011;30457;53.590;9.922;2024-02-15T19:24:33;5.32;;;4.05;;
44728;SDS011;30457;53.590;9.922;2024-02-15T19:28:59;9.77;;;3.95;;
44728;SDS011;30457;53.590;9.922;2024-02-15T19:33:26;8.43;;;4.50;;
44728;SDS011;30457;53.590;9.922;2024-02-15T19:37:52;5.95;;;4.72;;
44728;SDS011;30457;53.590;9.922;2024-02-15T19:42:17;7.55;;;4.05;;
44728;SDS011;30457;53.590;9.922;2024-02-15T19:46:43;4.90;;;3.53;;
44728;SDS011;30457;53.590;9.922;2024-02-15T19:51:08;6.97;;;3.90;;
44728;SDS011;30457;53.590;9.922;2024-02-15T19:55:34;7.63;;;4.32;;
44728;SDS011;30457;53.590;9.922;2024-02-15T19:59:59;6.63;;;3.97;;
44728;SDS011;30457;53.590;9.922;2024-02-15T20:04:25;5.50;;;3.95;;
44728;SDS011;30457;53.590;9.922;2024-02-15T20:08:51;6.30;;;3.67;;
44728;SDS011;30457;53.590;9.922;2024-02-15T20:13:17;6.63;;;4.38;;
44728;SDS011;30457;53.590;9.922;2024-02-15T20:17:42;5.78;;;3.80;;
44728;SDS011;30457;53.590;9.922;2024-02-15T20:22:09;9.10;;;4.25;;
44728;SDS011;30457;53.590;9.922;2024-02-15T20:26:35;6.72;;;4.15;;
44728;SDS011;30457;53.590;9.922;2024-02-15T20:31:01;11.75;;;5.50;;
44728;SDS011;30457;53.590;9.922;2024-02-15T20:35:26;4.80;;;3.15;;
44728;SDS011;30457;53.590;9.922;2024-02-15T20:39:52;4.43;;;2.97;;
44728;SDS011;30457;53.590;9.922;2024-02-15T20:44:18;4.40;;;3.15;;
44728;SDS011;30457;53.590;9.922;2024-02-15T20:48:44;3.83;;;3.35;;
44728;SDS011;30457;53.590;9.922;2024-02-15T20:53:11;5.63;;;3.67;;
44728;SDS011;30457;53.590;9.922;2024-02-15T20:57:36;5.20;;;2.92;;
44728;SDS011;30457;53.590;9.922;2024-02-15T21:02:03;9.68;;;3.13;;
44728;SDS011;30457;53.590;9.922;2024-02-15T21:06:30;4.38;;;3.03;;
44728;SDS011;30457;53.590;9.922;2024-02-15T21:10:57;4.05;;;3.10;;
44728;SDS011;30457;53.590;9.922;2024-02-15T21:15:24;4.63;;;3.33;;
44728;SDS011;30457;53.590;9.922;2024-02-15T21:19:50;4.45;;;3.33;;
44728;SDS011;30457;53.590;9.922;2024-02-15T21:24:15;5.03;;;3.25;;
44728;SDS011;30457;53.590;9.922;2024-02-15T21:28:41;10.55;;;3.30;;
44728;SDS011;30457;53.590;9.922;2024-02-15T21:33:09;4.55;;;3.05;;
44728;SDS011;30457;53.590;9.922;2024-02-15T21:37:34;3.42;;;2.70;;
44728;SDS011;30457;53.590;9.922;2024-02-15T21:42:00;3.83;;;2.65;;
44728;SDS011;30457;53.590;9.922;2024-02-15T21:46:27;5.13;;;2.90;;
44728;SDS011;30457;53.590;9.922;2024-02-15T21:50:52;3.38;;;2.55;;
44728;SDS011;30457;53.590;9.922;2024-02-15T21:55:18;7.00;;;2.80;;
44728;SDS011;30457;53.590;9.922;2024-02-15T21:59:43;8.02;;;2.60;;
44728;SDS011;30457;53.590;9.922;2024-02-15T22:04:09;3.95;;;2.80;;
44728;SDS011;30457;53.590;9.922;2024-02-15T22:08:35;6.20;;;2.35;;
44728;SDS011;30457;53.590;9.922;2024-02-15T22:13:00;6.95;;;3.35;;
44728;SDS011;30457;53.590;9.922;2024-02-15T22:17:27;4.45;;;2.42;;
44728;SDS011;30457;53.590;9.922;2024-02-15T22:21:52;3.72;;;2.50;;
44728;SDS011;30457;53.590;9.922;2024-02-15T22:26:18;4.13;;;2.55;;
44728;SDS011;30457;53.590;9.922;2024-02-15T22:30:44;6.40;;;2.78;;
44728;SDS011;30457;53.590;9.922;2024-02-15T22:35:09;2.75;;;2.38;;
44728;SDS011;30457;53.590;9.922;2024-02-15T22:39:35;3.72;;;2.40;;
44728;SDS011;30457;53.590;9.922;2024-02-15T22:44:01;4.53;;;2.30;;
44728;SDS011;30457;53.590;9.922;2024-02-15T22:48:26;3.90;;;2.35;;
44728;SDS011;30457;53.590;9.922;2024-02-15T22:52:52;3.10;;;2.58;;
44728;SDS011;30457;53.590;9.922;2024-02-15T22:57:17;4.15;;;2.63;;
44728;SDS011;30457;53.590;9.922;2024-02-15T23:01:43;4.00;;;2.67;;
44728;SDS011;30457;53.590;9.922;2024-02-15T23:06:09;2.50;;;2.30;;
44728;SDS011;30457;53.590;9.922;2024-02-15T23:10:35;3.17;;;2.70;;
44728;SDS011;30457;53.590;9.922;2024-02-15T23:15:01;8.65;;;3.30;;
44728;SDS011;30457;53.590;9.922;2024-02-15T23:19:26;4.50;;;3.00;;
44728;SDS011;30457;53.590;9.922;2024-02-15T23:23:53;4.03;;;2.53;;
44728;SDS011;30457;53.590;9.922;2024-02-15T23:28:18;9.93;;;3.20;;
44728;SDS011;30457;53.590;9.922;2024-02-15T23:32:44;8.65;;;2.28;;
44728;SDS011;30457;53.590;9.922;2024-02-15T23:37:10;6.68;;;2.70;;
44728;SDS011;30457;53.590;9.922;2024-02-15T23:42:05;4.95;;;3.22;;
44728;SDS011;30457;53.590;9.922;2024-02-15T23:46:32;5.47;;;3.20;;
44728;SDS011;30457;53.590;9.922;2024-02-15T23:50:57;6.00;;;3.03;;
44728;SDS011;30457;53.590;9.922;2024-02-15T23:55:23;5.20;;;2.72;;
44728;SDS011;30457;53.590;9.922;2024-02-15T23:59:48;6.05;;;2.78;;
